createdAt,value
2023-02-07T00:00:10.168Z,100069.16
2023-02-07T00:02:36.497Z,100078.31
2023-02-07T00:05:02.875Z,100083.81
2023-02-07T00:07:29.569Z,100084.00
2023-02-07T00:09:55.917Z,100082.50
2023-02-07T00:12:22.236Z,100083.53
2023-02-07T00:14:48.483Z,100096.16
2023-02-07T00:17:14.769Z,100091.69
2023-02-07T00:19:41.080Z,100087.34
2023-02-07T00:22:07.862Z,100089.38
2023-02-07T00:24:34.115Z,100072.78
2023-02-07T00:27:00.389Z,100073.94
2023-02-07T00:29:29.908Z,100079.44
2023-02-07T00:31:56.677Z,100087.59
2023-02-07T00:34:22.960Z,100079.78
2023-02-07T00:36:49.232Z,100074.66
2023-02-07T00:44:49.441Z,100067.72
2023-02-07T00:47:15.871Z,100074.03
2023-02-07T00:49:42.398Z,100072.38
2023-02-07T00:52:08.834Z,100073.22
2023-02-07T00:54:35.266Z,100071.38
2023-02-07T00:57:01.570Z,100060.09
2023-02-07T00:59:27.862Z,100052.28
2023-02-07T01:01:54.156Z,100049.00
2023-02-07T01:04:20.431Z,100054.47
2023-02-07T01:06:47.298Z,100054.47
2023-02-07T01:09:13.873Z,100057.28
2023-02-07T01:11:40.260Z,100061.81
2023-02-07T01:14:06.543Z,100064.63
2023-02-07T01:16:32.842Z,100067.47
2023-02-07T01:18:59.632Z,100055.19
2023-02-07T01:21:25.841Z,100047.03
2023-02-07T01:23:52.212Z,100051.16
2023-02-07T01:26:18.806Z,100051.47
2023-02-07T01:28:45.284Z,100052.06
2023-02-07T01:31:11.999Z,100053.66
2023-02-07T01:33:38.669Z,100046.47
2023-02-07T01:36:05.437Z,100046.19
2023-02-07T01:38:31.676Z,100045.13
2023-02-07T01:40:57.974Z,100029.94
2023-02-07T01:43:24.660Z,100041.34
2023-02-07T01:45:51.017Z,100028.97
2023-02-07T01:48:17.371Z,100035.63
2023-02-07T01:50:44.090Z,100036.25
2023-02-07T01:53:10.472Z,100031.94
2023-02-07T01:55:37.688Z,100030.94
2023-02-07T01:58:04.540Z,100031.94
2023-02-07T02:00:31.187Z,100038.28
2023-02-07T02:02:58.045Z,100032.28
2023-02-07T02:05:24.386Z,100022.38
2023-02-07T02:07:50.612Z,100022.44
2023-02-07T02:10:17.012Z,100014.31
2023-02-07T02:12:43.587Z,100010.34
2023-02-07T02:15:11.900Z,100005.41
2023-02-07T02:17:38.156Z,100016.41
2023-02-07T02:20:04.559Z,100004.28
2023-02-07T02:22:30.856Z,100017.13
2023-02-07T02:24:57.158Z,100015.00
2023-02-07T02:27:23.436Z,100016.34
2023-02-07T02:29:50.184Z,100021.38
2023-02-07T02:32:16.480Z,100023.75
2023-02-07T02:34:42.851Z,100020.81
2023-02-07T02:37:10.131Z,100024.63
2023-02-07T02:39:36.394Z,100012.72
2023-02-07T02:42:02.987Z,100023.50
2023-02-07T02:44:31.647Z,100016.06
2023-02-07T02:46:57.913Z,100026.22
2023-02-07T02:49:24.208Z,100031.91
2023-02-07T02:51:50.556Z,100029.41
2023-02-07T02:54:17.052Z,100031.59
2023-02-07T02:56:43.356Z,100029.28
2023-02-07T02:59:09.692Z,100022.50
2023-02-07T03:01:36.579Z,100021.00
2023-02-07T03:04:02.805Z,100023.19
2023-02-07T03:06:29.420Z,100020.88
2023-02-07T03:08:55.647Z,100014.06
2023-02-07T03:11:21.951Z,100010.78
2023-02-07T03:13:48.956Z,100018.09
2023-02-07T03:16:16.245Z,100015.75
2023-02-07T03:18:43.209Z,100024.75
2023-02-07T03:21:09.729Z,100014.31
2023-02-07T03:23:35.972Z,100014.13
2023-02-07T03:26:03.149Z,100010.44
2023-02-07T03:28:31.651Z,100011.41
2023-02-07T03:30:57.953Z,100013.03
2023-02-07T03:33:24.276Z,100009.31
2023-02-07T03:35:51.167Z,100010.75
2023-02-07T03:38:17.444Z,100021.66
2023-02-07T03:40:43.695Z,100019.75
2023-02-07T03:43:10.000Z,100017.66
2023-02-07T03:45:37.248Z,100026.69
2023-02-07T03:48:03.724Z,100013.97
2023-02-07T03:50:31.973Z,100010.44
2023-02-07T03:52:59.188Z,100012.53
2023-02-07T03:55:25.536Z,100009.72
2023-02-07T03:57:51.771Z,100011.75
2023-02-07T04:00:18.776Z,100012.91
2023-02-07T04:02:45.052Z,100007.31
2023-02-07T04:05:11.340Z,100015.81
2023-02-07T04:07:38.196Z,99998.91
2023-02-07T04:10:04.569Z,99992.66
2023-02-07T04:12:30.726Z,99989.72
2023-02-07T04:14:57.007Z,99973.44
2023-02-07T04:17:23.163Z,99975.63
2023-02-07T04:19:49.379Z,99972.47
2023-02-07T04:22:15.630Z,99972.66
2023-02-07T04:24:41.939Z,99959.75
2023-02-07T04:27:08.455Z,99950.44
2023-02-07T04:29:34.740Z,99954.50
2023-02-07T04:32:00.951Z,99955.19
2023-02-07T04:34:27.188Z,99949.78
2023-02-07T04:36:53.546Z,99948.47
2023-02-07T04:39:21.216Z,99953.47
2023-02-07T04:41:47.482Z,99952.19
2023-02-07T04:44:13.699Z,99950.91
2023-02-07T04:46:39.938Z,99947.59
2023-02-07T04:49:06.156Z,99954.06
2023-02-07T04:51:32.334Z,99958.59
2023-02-07T04:53:58.749Z,99966.56
2023-02-07T04:56:25.048Z,99959.56
2023-02-07T04:58:51.633Z,99972.00
2023-02-07T05:01:17.940Z,99974.69
2023-02-07T05:03:44.309Z,99983.66
2023-02-07T05:06:11.175Z,99988.16
2023-02-07T05:11:21.875Z,99997.13
2023-02-07T05:13:48.183Z,99995.47
2023-02-07T05:16:14.430Z,100004.44
2023-02-07T05:18:40.914Z,100006.28
2023-02-07T05:21:07.165Z,100001.78
2023-02-07T05:23:33.710Z,100008.13
2023-02-07T05:26:00.431Z,100011.75
2023-02-07T05:31:21.713Z,100020.56
2023-02-07T05:33:47.990Z,100024.06
2023-02-07T05:36:14.274Z,100024.69
2023-02-07T05:41:31.945Z,100028.41
2023-02-07T05:43:58.290Z,100022.22
2023-02-07T05:46:24.594Z,100032.28
2023-02-07T05:51:42.273Z,100028.59
2023-02-07T05:54:08.783Z,100034.50
2023-02-07T05:56:35.102Z,100039.13
2023-02-07T05:59:01.576Z,100044.75
2023-02-07T06:01:27.894Z,100051.19
2023-02-07T06:03:54.765Z,100057.00
2023-02-07T06:06:21.069Z,100062.59
2023-02-07T06:08:47.385Z,100055.59
2023-02-07T06:11:13.918Z,100061.47
2023-02-07T06:13:40.153Z,100057.34
2023-02-07T06:16:06.598Z,100059.38
2023-02-07T06:18:32.894Z,100059.53
2023-02-07T06:20:59.745Z,100064.34
2023-02-07T06:23:26.029Z,100065.72
2023-02-07T06:25:54.377Z,100058.06
2023-02-07T06:28:20.654Z,100053.97
2023-02-07T06:30:47.091Z,100067.44
2023-02-07T06:33:14.167Z,100060.63
2023-02-07T06:35:40.744Z,100064.50
2023-02-07T06:38:07.082Z,100064.03
2023-02-07T06:40:34.206Z,100065.19
2023-02-07T06:43:00.547Z,100061.88
2023-02-07T06:45:26.871Z,100079.84
2023-02-07T06:47:53.155Z,100071.06
2023-02-07T06:50:19.992Z,100069.38
2023-02-07T06:52:46.292Z,100074.88
2023-02-07T06:55:13.500Z,100070.59
2023-02-07T06:57:40.703Z,100072.59
2023-02-07T07:00:07.066Z,100058.44
2023-02-07T07:02:33.679Z,100064.97
2023-02-07T07:05:00.236Z,100053.66
2023-02-07T07:07:26.703Z,100052.00
2023-02-07T07:09:52.986Z,100046.69
2023-02-07T07:12:19.337Z,100045.03
2023-02-07T07:14:45.694Z,100051.53
2023-02-07T07:17:12.076Z,100044.56
2023-02-07T07:19:38.694Z,100055.19
2023-02-07T07:22:04.979Z,100047.03
2023-02-07T07:24:33.082Z,100051.66
2023-02-07T07:26:59.370Z,100051.13
2023-02-07T07:29:25.759Z,100057.22
2023-02-07T07:31:52.152Z,100060.44
2023-02-07T07:34:18.584Z,100059.56
2023-02-07T07:36:44.810Z,100058.91
2023-02-07T07:39:11.082Z,100072.97
2023-02-07T07:41:37.889Z,100070.22
2023-02-07T07:44:04.334Z,100072.81
2023-02-07T07:46:31.364Z,100077.22
2023-02-07T07:48:57.662Z,100087.00
2023-02-07T07:51:23.948Z,100084.59
2023-02-07T07:53:50.599Z,100081.84
2023-02-07T07:56:17.210Z,100080.31
2023-02-07T07:58:43.476Z,100075.06
2023-02-07T08:01:09.807Z,100075.97
2023-02-07T08:03:36.128Z,100082.03
2023-02-07T08:06:02.402Z,100085.81
2023-02-07T08:08:28.659Z,100079.13
2023-02-07T08:10:54.919Z,100080.22
2023-02-07T08:13:22.550Z,100078.88
2023-02-07T08:15:48.863Z,100074.81
2023-02-07T08:18:15.963Z,100072.59
2023-02-07T08:20:43.507Z,100069.56
2023-02-07T08:23:09.885Z,100067.91
2023-02-07T08:25:36.420Z,100070.22
2023-02-07T08:28:04.502Z,100069.47
2023-02-07T08:30:31.136Z,100069.47
2023-02-07T08:32:58.223Z,100070.09
2023-02-07T08:35:24.496Z,100073.97
2023-02-07T08:37:50.751Z,100077.38
2023-02-07T08:40:17.263Z,100077.38
2023-02-07T08:42:43.577Z,100078.38
2023-02-07T08:45:09.851Z,100088.50
2023-02-07T08:47:36.576Z,100087.31
2023-02-07T08:50:02.994Z,100096.41
2023-02-07T08:52:29.888Z,100095.97
2023-02-07T08:54:56.719Z,100100.72
2023-02-07T08:57:23.010Z,100094.28
2023-02-07T08:59:49.419Z,100089.97
2023-02-07T09:02:15.711Z,100099.06
2023-02-07T09:04:42.026Z,100097.19
2023-02-07T09:07:08.227Z,100097.00
2023-02-07T09:09:34.940Z,100097.47
2023-02-07T09:12:01.234Z,100101.28
2023-02-07T09:14:27.506Z,100092.63
2023-02-07T09:16:53.805Z,100093.63
2023-02-07T09:19:20.060Z,100092.44
2023-02-07T09:21:46.379Z,100095.75
2023-02-07T09:24:12.686Z,100097.00
2023-02-07T09:26:39.136Z,100098.28
2023-02-07T09:29:06.182Z,100104.09
2023-02-07T09:31:32.797Z,100094.88
2023-02-07T09:34:00.056Z,100090.81
2023-02-07T09:36:26.657Z,100077.91
2023-02-07T09:38:53.064Z,100083.53
2023-02-07T09:41:19.389Z,100086.66
2023-02-07T09:43:46.312Z,100078.06
2023-02-07T09:46:12.812Z,100093.69
2023-02-07T09:48:39.104Z,100085.50
2023-02-07T09:51:06.121Z,100087.63
2023-02-07T09:53:32.414Z,100088.06
2023-02-07T09:56:03.085Z,100076.16
2023-02-07T09:58:39.872Z,100081.75
2023-02-07T10:01:09.375Z,100076.09
2023-02-07T10:03:37.983Z,100079.19
2023-02-07T10:06:17.401Z,100077.97
2023-02-07T10:08:44.582Z,100089.94
2023-02-07T10:11:10.849Z,100087.91
2023-02-07T10:13:37.093Z,100089.16
2023-02-07T10:16:03.446Z,100092.09
2023-02-07T10:18:33.712Z,100090.03
2023-02-07T10:20:59.953Z,100089.66
2023-02-07T10:23:26.245Z,100083.94
2023-02-07T10:25:52.719Z,100094.22
2023-02-07T10:28:21.288Z,100093.84
2023-02-07T10:30:48.287Z,100096.13
2023-02-07T10:33:14.657Z,100093.91
2023-02-07T10:35:41.148Z,100100.50
2023-02-07T10:38:07.532Z,100100.94
2023-02-07T10:40:33.819Z,100097.91
2023-02-07T10:43:00.171Z,100090.31
2023-02-07T10:45:27.070Z,100090.75
2023-02-07T10:47:53.314Z,100085.84
2023-02-07T10:50:29.292Z,100085.44
2023-02-07T10:53:06.759Z,100086.72
2023-02-07T10:55:37.904Z,100086.31
2023-02-07T10:58:17.829Z,100088.59
2023-02-07T11:00:47.684Z,100091.69
2023-02-07T11:03:13.998Z,100084.31
2023-02-07T11:05:40.839Z,100091.72
2023-02-07T11:08:09.386Z,100075.53
2023-02-07T11:10:36.471Z,100070.63
2023-02-07T11:13:02.756Z,100079.25
2023-02-07T11:15:29.041Z,100075.38
2023-02-07T11:17:55.563Z,100073.34
2023-02-07T11:20:21.989Z,100068.00
2023-02-07T11:22:48.447Z,100067.78
2023-02-07T11:25:14.761Z,100066.75
2023-02-07T11:27:41.032Z,100055.84
2023-02-07T11:30:08.103Z,100057.53
2023-02-07T11:32:34.338Z,100051.97
2023-02-07T11:35:01.705Z,100043.13
2023-02-07T11:37:28.570Z,100037.78
2023-02-07T11:39:54.929Z,100047.47
2023-02-07T11:42:21.206Z,100037.56
2023-02-07T11:44:48.294Z,100025.03
2023-02-07T11:47:14.593Z,100032.03
2023-02-07T11:49:40.915Z,100035.53
2023-02-07T11:52:07.427Z,100047.06
2023-02-07T11:54:33.760Z,100038.81
2023-02-07T11:57:00.137Z,100041.31
2023-02-07T11:59:26.602Z,100047.47
2023-02-07T12:01:53.141Z,100039.06
2023-02-07T12:04:19.429Z,100032.91
2023-02-07T12:06:47.505Z,100038.03
2023-02-07T12:09:13.832Z,100038.03
2023-02-07T12:17:44.182Z,100022.78
2023-02-07T12:20:10.631Z,100022.78
2023-02-07T12:22:38.577Z,100029.81
2023-02-07T12:25:08.182Z,100019.94
2023-02-07T12:27:35.075Z,100017.06
2023-02-07T12:30:01.544Z,100003.84
2023-02-07T12:32:27.986Z,100016.88
2023-02-07T12:34:54.303Z,100009.69
2023-02-07T12:37:20.542Z,100009.69
2023-02-07T12:39:46.833Z,100014.81
2023-02-07T12:48:10.853Z,100005.97
2023-02-07T12:50:37.184Z,100001.66
2023-02-07T12:53:03.734Z,99991.75
2023-02-07T12:55:30.686Z,99990.94
2023-02-07T12:57:57.001Z,99984.97
2023-02-07T13:00:23.609Z,99978.59
2023-02-07T13:02:49.928Z,99974.28
2023-02-07T13:05:16.182Z,99975.06
2023-02-07T13:07:42.584Z,99977.75
2023-02-07T13:10:08.911Z,99975.91
2023-02-07T13:12:35.295Z,99968.72
2023-02-07T13:15:01.594Z,99967.88
2023-02-07T13:17:27.906Z,99973.84
2023-02-07T13:19:54.199Z,99978.16
2023-02-07T13:22:23.346Z,99978.00
2023-02-07T13:24:49.799Z,99976.75
2023-02-07T13:27:16.580Z,99976.34
2023-02-07T13:29:52.813Z,99990.34
2023-02-07T13:32:19.286Z,99982.94
2023-02-07T13:34:45.753Z,99984.34
2023-02-07T13:37:17.088Z,99982.09
2023-02-07T13:39:43.988Z,99989.69
2023-02-07T13:42:11.196Z,99988.44
2023-02-07T13:44:37.526Z,99988.84
2023-02-07T13:47:04.084Z,99980.41
2023-02-07T13:49:35.936Z,99976.06
2023-02-07T13:52:02.290Z,99974.63
2023-02-07T13:54:29.278Z,99980.38
2023-02-07T13:56:55.739Z,99975.41
2023-02-07T13:59:22.150Z,99974.81
2023-02-07T14:01:49.024Z,99983.22
2023-02-07T14:04:15.524Z,99979.28
2023-02-07T14:06:41.803Z,99978.63
2023-02-07T14:09:08.528Z,99981.53
2023-02-07T14:11:34.825Z,99989.91
2023-02-07T14:14:01.313Z,99992.78
2023-02-07T14:16:27.646Z,99987.84
2023-02-07T14:18:53.940Z,99984.53
2023-02-07T14:21:20.795Z,99981.25
2023-02-07T14:23:47.180Z,99981.66
2023-02-07T14:26:14.895Z,99981.00
2023-02-07T14:28:41.194Z,99978.75
2023-02-07T14:31:07.851Z,99981.00
2023-02-07T14:33:34.207Z,99979.53
2023-02-07T14:36:00.589Z,99971.91
2023-02-07T14:41:11.922Z,99971.25
2023-02-07T14:43:38.358Z,99966.47
2023-02-07T14:46:05.106Z,99967.69
2023-02-07T14:48:32.108Z,99967.28
2023-02-07T14:50:59.276Z,99974.84
2023-02-07T14:53:26.017Z,99977.09
2023-02-07T14:55:53.016Z,99981.78
2023-02-07T14:58:19.442Z,99984.88
2023-02-07T15:00:45.911Z,99989.97
2023-02-07T15:03:13.192Z,99987.66
2023-02-07T15:05:52.388Z,99982.72
2023-02-07T15:08:25.396Z,99988.66
2023-02-07T15:10:51.843Z,99987.38
2023-02-07T15:13:18.236Z,99990.44
2023-02-07T15:15:46.931Z,99982.81
2023-02-07T15:18:13.924Z,99988.69
2023-02-07T15:20:41.537Z,99989.94
2023-02-07T15:23:08.282Z,99985.78
2023-02-07T15:25:34.672Z,99986.97
2023-02-07T15:28:01.103Z,99995.38
2023-02-07T15:30:27.452Z,99986.94
2023-02-07T15:32:54.457Z,99992.03
2023-02-07T15:35:21.807Z,99989.75
2023-02-07T15:37:48.320Z,99995.47
2023-02-07T15:40:14.625Z,99990.50
2023-02-07T15:42:40.989Z,99993.56
2023-02-07T15:45:16.138Z,99991.47
2023-02-07T15:47:49.765Z,99984.84
2023-02-07T15:50:19.719Z,99981.56
2023-02-07T15:52:46.075Z,99984.81
2023-02-07T15:55:12.364Z,99987.03
2023-02-07T15:57:42.222Z,99993.53
2023-02-07T16:00:08.549Z,100005.59
2023-02-07T16:02:35.201Z,99995.97
2023-02-07T16:05:01.631Z,99991.00
2023-02-07T16:07:27.904Z,99999.38
2023-02-07T16:09:54.181Z,99995.06
2023-02-07T16:12:21.222Z,99996.72
2023-02-07T16:14:47.549Z,100005.72
2023-02-07T16:17:13.958Z,100007.22
2023-02-07T16:19:40.213Z,100002.69
2023-02-07T16:22:07.142Z,99999.81
2023-02-07T16:24:34.140Z,100002.31
2023-02-07T16:27:00.532Z,100007.47
2023-02-07T16:29:26.899Z,100005.59
2023-02-07T16:31:53.584Z,100002.94
2023-02-07T16:34:20.682Z,100008.28
2023-02-07T16:36:47.152Z,100005.44
2023-02-07T16:41:57.709Z,100007.28
2023-02-07T16:47:09.377Z,100001.94
2023-02-07T16:49:35.747Z,100009.09
2023-02-07T16:52:02.289Z,100002.13
2023-02-07T16:54:31.508Z,99999.66
2023-02-07T16:56:58.444Z,100003.31
2023-02-07T16:59:27.242Z,99996.34
2023-02-07T17:01:53.558Z,99996.53
2023-02-07T17:04:19.865Z,100002.03
2023-02-07T17:06:46.253Z,100001.22
2023-02-07T17:09:13.250Z,100004.09
2023-02-07T17:11:39.868Z,100005.09
2023-02-07T17:14:06.143Z,100011.44
2023-02-07T17:16:32.543Z,100002.81
2023-02-07T17:18:58.956Z,100010.16
2023-02-07T17:21:25.696Z,100013.84
2023-02-07T17:23:53.176Z,100014.03
2023-02-07T17:26:20.398Z,100026.56
2023-02-07T17:28:49.111Z,100019.72
2023-02-07T17:31:16.366Z,100016.63
2023-02-07T17:33:43.265Z,100021.16
2023-02-07T17:36:09.600Z,100017.00
2023-02-07T17:38:36.091Z,100018.19
2023-02-07T17:41:03.213Z,100024.72
2023-02-07T17:43:29.517Z,100019.56
2023-02-07T17:45:56.033Z,100020.94
2023-02-07T17:48:23.320Z,100020.28
2023-02-07T17:50:49.616Z,100030.31
2023-02-07T17:53:15.951Z,100029.84
2023-02-07T17:55:42.234Z,100030.22
2023-02-07T17:58:08.679Z,100029.59
2023-02-07T18:00:34.957Z,100032.63
2023-02-07T18:03:01.247Z,100032.81
2023-02-07T18:05:27.694Z,100035.47
2023-02-07T18:07:54.067Z,100035.66
2023-02-07T18:13:10.689Z,100038.69
2023-02-07T18:15:37.295Z,100043.00
2023-02-07T18:18:03.582Z,100037.03
2023-02-07T18:20:30.094Z,100038.06
2023-02-07T18:22:57.038Z,100027.41
2023-02-07T18:25:23.522Z,100030.22
2023-02-07T18:27:49.837Z,100032.09
2023-02-07T18:30:16.826Z,100031.25
2023-02-07T18:32:43.340Z,100034.09
2023-02-07T18:35:09.722Z,100027.94
2023-02-07T18:37:36.091Z,100028.13
2023-02-07T18:40:02.402Z,100027.47
2023-02-07T18:42:32.790Z,100025.84
2023-02-07T18:44:59.172Z,100030.53
2023-02-07T18:47:25.651Z,100024.53
2023-02-07T18:49:51.984Z,100024.72
2023-02-07T18:52:18.494Z,100024.91
2023-02-07T18:54:44.781Z,100021.59
2023-02-07T18:57:11.175Z,100019.94
2023-02-07T18:59:37.691Z,100019.94
2023-02-07T19:02:04.051Z,100021.97
2023-02-07T19:04:30.420Z,100021.16
2023-02-07T19:06:56.655Z,100026.47
2023-02-07T19:09:23.871Z,100017.00
2023-02-07T19:11:50.196Z,100018.84
2023-02-07T19:14:16.478Z,100026.84
2023-02-07T19:16:43.504Z,100013.41
2023-02-07T19:19:10.707Z,100029.69
2023-02-07T19:21:36.988Z,100027.03
2023-02-07T19:24:03.377Z,100022.69
2023-02-07T19:26:29.674Z,100015.72
2023-02-07T19:28:55.968Z,100027.38
2023-02-07T19:31:22.492Z,100025.72
2023-02-07T19:33:48.930Z,100029.56
2023-02-07T19:36:15.873Z,100029.75
2023-02-07T19:38:43.306Z,100025.66
2023-02-07T19:41:09.610Z,100028.47
2023-02-07T19:43:35.877Z,100023.31
2023-02-07T19:46:02.316Z,100028.84
2023-02-07T19:48:28.922Z,100027.19
2023-02-07T19:50:55.730Z,100028.19
2023-02-07T19:53:22.053Z,100018.75
2023-02-07T19:55:48.350Z,100023.03
2023-02-07T19:58:14.788Z,100027.53
2023-02-07T20:00:43.836Z,100019.53
2023-02-07T20:03:10.183Z,100025.88
2023-02-07T20:05:36.461Z,100017.91
2023-02-07T20:08:04.340Z,100026.06
2023-02-07T20:10:30.694Z,100024.25
2023-02-07T20:12:57.024Z,100015.94
2023-02-07T20:15:23.369Z,100030.56
2023-02-07T20:17:49.684Z,100034.25
2023-02-07T20:20:15.968Z,100030.75
2023-02-07T20:22:42.362Z,100040.56
2023-02-07T20:25:08.652Z,100028.09
2023-02-07T20:27:36.186Z,100023.78
2023-02-07T20:30:02.417Z,100029.91
2023-02-07T20:32:28.740Z,100030.94
2023-02-07T20:34:55.033Z,100027.44
2023-02-07T20:37:22.400Z,100023.94
2023-02-07T20:39:48.680Z,100032.13
2023-02-07T20:42:15.235Z,100032.94
2023-02-07T20:44:42.297Z,100020.66
2023-02-07T20:47:08.683Z,100022.66
2023-02-07T20:49:38.642Z,100031.84
2023-02-07T20:52:05.218Z,100029.34
2023-02-07T20:54:31.549Z,100032.19
2023-02-07T20:56:58.168Z,100024.41
2023-02-07T20:59:28.112Z,100029.06
2023-02-07T21:01:56.668Z,100025.94
2023-02-07T21:04:23.351Z,100026.13
2023-02-07T21:06:50.090Z,100022.78
2023-02-07T21:09:17.028Z,100021.13
2023-02-07T21:14:27.599Z,100022.31
2023-02-07T21:16:54.074Z,100022.31
2023-02-07T21:19:21.657Z,100019.84
2023-02-07T21:21:48.637Z,100017.34
2023-02-07T21:24:14.951Z,100018.16
2023-02-07T21:26:41.254Z,100026.13
2023-02-07T21:29:07.629Z,100022.03
2023-02-07T21:31:37.086Z,100021.00
2023-02-07T21:34:03.346Z,100017.69
2023-02-07T21:36:32.759Z,100017.88
2023-02-07T21:38:59.045Z,100016.22
2023-02-07T21:41:28.833Z,100017.25
2023-02-07T21:43:55.271Z,100016.41
2023-02-07T21:46:22.246Z,100013.94
2023-02-07T21:48:48.564Z,100017.59
2023-02-07T21:51:15.007Z,100014.13
2023-02-07T21:53:44.560Z,100017.59
2023-02-07T21:56:11.009Z,100011.28
2023-02-07T21:58:37.355Z,100016.59
2023-02-07T22:01:03.727Z,100016.59
2023-02-07T22:03:30.823Z,100012.25
2023-02-07T22:05:57.206Z,100019.44
2023-02-07T22:08:23.586Z,100009.59
2023-02-07T22:10:49.894Z,100010.63
2023-02-07T22:13:16.183Z,100004.66
2023-02-07T22:15:43.276Z,100000.34
2023-02-07T22:18:09.541Z,100005.81
2023-02-07T22:20:35.818Z,100006.00
2023-02-07T22:23:02.135Z,99997.38
2023-02-07T22:25:28.435Z,99996.56
2023-02-07T22:27:54.735Z,99999.41
2023-02-07T22:30:21.064Z,99997.91
2023-02-07T22:32:47.573Z,99999.94
2023-02-07T22:35:13.971Z,99998.47
2023-02-07T22:37:42.750Z,100002.28
2023-02-07T22:40:09.345Z,99998.78
2023-02-07T22:42:35.641Z,99998.78
2023-02-07T22:45:02.007Z,99992.03
2023-02-07T22:47:29.298Z,99996.50
2023-02-07T22:49:55.531Z,99991.38
2023-02-07T22:52:21.779Z,99991.56
2023-02-07T22:54:48.697Z,99991.72
2023-02-07T22:57:14.980Z,99990.06
2023-02-07T22:59:41.243Z,99992.06
2023-02-07T23:02:07.620Z,99988.94
2023-02-07T23:04:34.194Z,99984.63
2023-02-07T23:07:00.862Z,99985.78
2023-02-07T23:09:27.217Z,99993.16
2023-02-07T23:11:54.001Z,99999.63
2023-02-07T23:14:22.427Z,99995.34
2023-02-07T23:16:48.745Z,100002.66
2023-02-07T23:19:15.258Z,99996.03
2023-02-07T23:21:41.514Z,99994.53
2023-02-07T23:24:08.075Z,99990.41
2023-02-07T23:26:35.166Z,99991.06
2023-02-07T23:29:01.458Z,99995.53
2023-02-07T23:31:27.849Z,100007.03
2023-02-07T23:33:54.160Z,100008.16
2023-02-07T23:36:20.448Z,100004.25
2023-02-07T23:38:46.769Z,99998.16
2023-02-07T23:41:13.248Z,100002.22
2023-02-07T23:43:39.571Z,100005.31
2023-02-07T23:46:06.959Z,100011.84
2023-02-07T23:48:34.485Z,100014.75
2023-02-07T23:51:01.934Z,100011.19
2023-02-07T23:53:28.162Z,100012.94
2023-02-07T23:55:55.220Z,100010.75
2023-02-07T23:58:21.575Z,100010.56
